This is the latest recevied weather packets stored in our database for station/object IN3APK-3. If no packets are shown the sender has not sent any weather packets the latest 10 day(s).
| Time | Temp. | Humidity | Pressure | Rain* | Wind** | Luminosity | Snow |
|---|---|---|---|---|---|---|---|
| 1777568278 | 22.22° C | 30% | 1014.7 hPa | - | - | - | - |
| 1777567626 | 22.22° C | 30% | 1014.6 hPa | - | - | - | - |
| 1777566973 | 21.11° C | 29% | 1014.5 hPa | - | - | - | - |
| 1777566323 | 23.89° C | 28% | 1014.5 hPa | - | - | - | - |
| 1777565672 | 25.56° C | 27% | 1014.3 hPa | - | - | - | - |
| 1777565021 | 26.67° C | 28% | 1014.1 hPa | - | - | - | - |
| 1777564370 | 27.22° C | 28% | 1014.3 hPa | - | - | - | - |
| 1777563717 | 27.78° C | 27% | 1014.1 hPa | - | - | - | - |
| 1777563065 | 27.78° C | 27% | 1014 hPa | - | - | - | - |
| 1777562414 | 28.33° C | 27% | 1014 hPa | - | - | - | - |
| 1777561761 | 26.67° C | 28% | 1014.1 hPa | - | - | - | - |
| 1777561109 | 26.67° C | 27% | 1014.1 hPa | - | - | - | - |
| 1777560457 | 27.22° C | 27% | 1014.3 hPa | - | - | - | - |
| 1777559805 | 26.67° C | 28% | 1014.2 hPa | - | - | - | - |
| 1777558501 | 26.67° C | 28% | 1014.2 hPa | - | - | - | - |
| 1777557848 | 25.56° C | 29% | 1014.4 hPa | - | - | - | - |
| 1777555892 | 24.44° C | 35% | 1014.6 hPa | - | - | - | - |
| 1777555239 | 23.33° C | 37% | 1014.7 hPa | - | - | - | - |
| 1777554585 | 22.22° C | 38% | 1014.9 hPa | - | - | - | - |
| 1777553932 | 22.22° C | 39% | 1015 hPa | - | - | - | - |
| 1777553280 | 22.22° C | 40% | 1015.1 hPa | - | - | - | - |
| 1777552628 | 22.22° C | 43% | 1015.2 hPa | - | - | - | - |
| 1777551976 | 22.22° C | 44% | 1015.4 hPa | - | - | - | - |
| 1777551324 | 21.67° C | 46% | 1015.5 hPa | - | - | - | - |
| 1777550671 | 20.56° C | 49% | 1015.7 hPa | - | - | - | - |
* Rain since midnight (hover to see other rain measurements)
** Current wind speed in m/s (hover to see current wind gust speed)